createdAt,value
2024-01-21T00:06:00.962Z,-3.71
2024-01-21T00:16:00.819Z,-3.71
2024-01-21T00:26:00.733Z,-3.84
2024-01-21T00:36:00.626Z,-3.94
2024-01-21T00:46:08.310Z,-3.97
2024-01-21T00:56:00.491Z,-4.12
2024-01-21T01:06:00.431Z,-4.21
2024-01-21T01:16:00.304Z,-4.45
2024-01-21T01:26:00.178Z,-4.65
2024-01-21T01:36:00.100Z,-4.90
2024-01-21T01:46:00.056Z,-5.05
2024-01-21T01:55:59.901Z,-5.18
2024-01-21T02:05:59.789Z,-5.13
2024-01-21T02:15:59.681Z,-4.70
2024-01-21T02:25:59.586Z,-4.34
2024-01-21T02:35:59.493Z,-4.26
2024-01-21T02:45:59.458Z,-4.06
2024-01-21T02:55:59.300Z,-3.94
2024-01-21T03:05:59.214Z,-4.01
2024-01-21T03:15:59.140Z,-4.18
2024-01-21T03:25:59.070Z,-4.11
2024-01-21T03:35:58.933Z,-4.05
2024-01-21T03:45:58.859Z,-4.05
2024-01-21T03:55:58.747Z,-3.88
2024-01-21T04:05:58.670Z,-3.77
2024-01-21T04:15:58.576Z,-3.84
2024-01-21T04:26:00.672Z,-3.79
2024-01-21T04:35:58.379Z,-3.72
2024-01-21T04:45:58.312Z,-3.66
2024-01-21T04:55:58.184Z,-3.66
2024-01-21T05:05:58.089Z,-3.63
2024-01-21T05:15:58.002Z,-3.60
2024-01-21T05:25:57.880Z,-3.44
2024-01-21T05:35:57.811Z,-3.33
2024-01-21T05:45:57.866Z,-3.21
2024-01-21T05:55:57.602Z,-3.14
2024-01-21T06:05:57.546Z,-3.14
2024-01-21T06:15:57.535Z,-3.15
2024-01-21T06:25:57.317Z,-3.16
2024-01-21T06:35:57.359Z,-3.16
2024-01-21T06:45:57.141Z,-3.18
2024-01-21T06:57:07.230Z,-3.14
2024-01-21T07:07:08.075Z,-3.15
2024-01-21T07:17:07.793Z,-3.14
2024-01-21T07:27:07.674Z,-3.00
2024-01-21T07:37:07.564Z,-2.80
2024-01-21T07:47:07.539Z,-2.59
2024-01-21T07:57:07.374Z,-2.43
2024-01-21T08:07:07.338Z,-2.20
2024-01-21T08:17:07.215Z,-1.85
2024-01-21T08:27:07.111Z,-1.52
2024-01-21T08:37:07.053Z,-1.27
2024-01-21T08:47:06.884Z,-1.10
2024-01-21T08:57:06.807Z,-0.93
2024-01-21T09:07:06.867Z,-0.73
2024-01-21T09:17:06.610Z,-0.52
2024-01-21T09:27:06.483Z,-0.38
2024-01-21T09:37:06.466Z,-0.22
2024-01-21T09:47:06.281Z,-0.04
2024-01-21T09:57:06.172Z,0.13
2024-01-21T10:07:06.147Z,0.39
2024-01-21T10:17:06.130Z,0.42
2024-01-21T10:27:05.976Z,0.56
2024-01-21T10:37:05.992Z,0.79
2024-01-21T10:47:05.753Z,1.10
2024-01-21T10:57:05.588Z,1.17
2024-01-21T11:07:05.512Z,1.42
2024-01-21T11:17:05.586Z,1.61
2024-01-21T11:27:05.303Z,1.65
2024-01-21T11:37:05.341Z,1.87
2024-01-21T11:47:05.133Z,2.05
2024-01-21T11:57:04.985Z,2.16
2024-01-21T12:07:04.983Z,2.48
2024-01-21T12:17:04.778Z,2.51
2024-01-21T12:27:04.760Z,2.49
2024-01-21T12:37:05.361Z,2.42
2024-01-21T12:47:05.393Z,2.45
2024-01-21T12:57:04.440Z,2.51
2024-01-21T13:07:04.768Z,2.62
2024-01-21T13:17:04.378Z,2.62
2024-01-21T13:27:04.243Z,2.37
2024-01-21T13:37:04.095Z,2.55
2024-01-21T13:47:03.943Z,2.73
2024-01-21T13:57:03.811Z,2.76
2024-01-21T14:07:03.717Z,2.69
2024-01-21T14:17:03.765Z,2.63
2024-01-21T14:27:03.469Z,2.73
2024-01-21T14:37:03.941Z,2.91
2024-01-21T14:47:03.304Z,2.90
2024-01-21T14:57:03.282Z,3.02
2024-01-21T15:07:03.262Z,3.02
2024-01-21T15:17:03.020Z,2.83
2024-01-21T15:27:02.962Z,2.58
2024-01-21T15:37:02.793Z,2.55
2024-01-21T15:47:02.643Z,2.76
2024-01-21T15:57:08.535Z,2.80
2024-01-21T16:07:02.476Z,2.57
2024-01-21T16:17:02.438Z,2.49
2024-01-21T16:27:02.311Z,2.52
2024-01-21T16:37:12.847Z,2.48
2024-01-21T16:47:02.052Z,2.36
2024-01-21T16:57:01.920Z,2.23
2024-01-21T17:17:01.725Z,2.39
2024-01-21T17:27:01.862Z,2.39
2024-01-21T17:37:01.561Z,2.51
2024-01-21T17:47:01.415Z,2.45
2024-01-21T17:57:01.396Z,2.52
2024-01-21T18:07:01.226Z,2.57
2024-01-21T18:17:01.301Z,2.52
2024-01-21T18:27:01.251Z,2.51
2024-01-21T18:37:01.092Z,2.66
2024-01-21T18:47:00.941Z,2.70
2024-01-21T18:57:00.807Z,2.80
2024-01-21T19:07:08.288Z,2.90
2024-01-21T19:17:00.498Z,3.17
2024-01-21T19:27:00.471Z,2.93
2024-01-21T19:37:00.380Z,2.84
2024-01-21T19:47:00.242Z,2.84
2024-01-21T19:57:00.312Z,2.84
2024-01-21T20:07:00.045Z,2.67
2024-01-21T20:17:00.730Z,2.72
2024-01-21T20:26:59.824Z,2.78
2024-01-21T20:37:00.128Z,2.91
2024-01-21T20:46:59.629Z,2.96
2024-01-21T20:56:59.522Z,2.94
2024-01-21T21:06:59.407Z,2.88
2024-01-21T21:16:59.286Z,2.85
2024-01-21T21:26:59.294Z,2.84
2024-01-21T21:36:59.081Z,2.80
2024-01-21T21:46:58.989Z,2.75
2024-01-21T21:57:06.410Z,2.73
2024-01-21T22:06:58.938Z,2.73
2024-01-21T22:16:58.669Z,2.72
2024-01-21T22:26:58.619Z,2.65
2024-01-21T22:36:58.476Z,2.73
2024-01-21T22:46:58.349Z,2.73
2024-01-21T22:56:58.305Z,2.62
2024-01-21T23:06:58.148Z,2.54
2024-01-21T23:16:58.043Z,2.41
2024-01-21T23:26:57.993Z,2.41
2024-01-21T23:36:57.837Z,2.44
2024-01-21T23:46:57.743Z,2.54
2024-01-21T23:57:05.367Z,2.60
